createdAt,value
2024-03-18T00:00:59.267Z,100495.18
2024-03-18T00:03:34.835Z,100491.69
2024-03-18T00:06:02.049Z,100487.41
2024-03-18T00:08:29.229Z,100489.63
2024-03-18T00:10:56.369Z,100484.89
2024-03-18T00:13:23.641Z,100483.33
2024-03-18T00:15:50.779Z,100487.27
2024-03-18T00:18:17.974Z,100484.00
2024-03-18T00:20:45.196Z,100483.25
2024-03-18T00:23:12.444Z,100478.60
2024-03-18T00:25:39.682Z,100477.05
2024-03-18T00:28:08.627Z,100479.61
2024-03-18T00:30:38.267Z,100472.42
2024-03-18T00:33:07.623Z,100469.86
2024-03-18T00:35:35.014Z,100469.72
2024-03-18T00:38:02.916Z,100471.60
2024-03-18T00:40:30.436Z,100472.08
2024-03-18T00:42:58.035Z,100474.60
2024-03-18T00:45:25.202Z,100465.69
2024-03-18T00:47:52.412Z,100470.09
2024-03-18T00:50:19.907Z,100466.79
2024-03-18T00:52:47.610Z,100467.77
2024-03-18T00:55:14.852Z,100464.10
2024-03-18T00:57:42.023Z,100463.36
2024-03-18T01:00:12.492Z,100459.23
2024-03-18T01:02:40.075Z,100457.30
2024-03-18T01:05:10.476Z,100457.27
2024-03-18T01:07:39.311Z,100458.91
2024-03-18T01:10:07.223Z,100453.07
2024-03-18T01:12:35.002Z,100451.34
2024-03-18T01:15:02.685Z,100448.94
2024-03-18T01:17:29.882Z,100445.22
2024-03-18T01:19:57.043Z,100440.96
2024-03-18T01:22:25.346Z,100442.27
2024-03-18T01:24:52.611Z,100447.91
2024-03-18T01:27:19.816Z,100445.14
2024-03-18T01:29:49.461Z,100441.16
2024-03-18T01:32:17.305Z,100440.33
2024-03-18T01:34:44.483Z,100432.59
2024-03-18T01:37:11.703Z,100430.88
2024-03-18T01:39:38.923Z,100427.58
2024-03-18T01:42:06.332Z,100424.30
2024-03-18T01:44:33.494Z,100424.48
2024-03-18T01:47:01.008Z,100423.64
2024-03-18T01:49:28.228Z,100423.33
2024-03-18T01:51:55.567Z,100420.10
2024-03-18T01:54:22.796Z,100417.89
2024-03-18T01:56:49.938Z,100417.88
2024-03-18T01:59:17.091Z,100424.55
2024-03-18T02:01:44.240Z,100417.67
2024-03-18T02:04:12.285Z,100418.20
2024-03-18T02:06:42.624Z,100419.41
2024-03-18T02:09:10.259Z,100418.95
2024-03-18T02:11:37.476Z,100418.16
2024-03-18T02:14:15.329Z,100417.85
2024-03-18T02:16:43.587Z,100418.43
2024-03-18T02:19:11.050Z,100420.35
2024-03-18T02:21:38.340Z,100412.45
2024-03-18T02:24:07.801Z,100411.44
2024-03-18T02:26:34.994Z,100409.91
2024-03-18T02:29:02.728Z,100411.11
2024-03-18T02:31:29.970Z,100409.59
2024-03-18T02:33:57.121Z,100408.54
2024-03-18T02:36:24.291Z,100406.86
2024-03-18T02:38:53.574Z,100406.21
2024-03-18T02:41:21.311Z,100403.64
2024-03-18T02:43:48.923Z,100403.96
2024-03-18T02:46:16.085Z,100402.55
2024-03-18T02:48:43.579Z,100405.05
2024-03-18T02:51:10.790Z,100405.19
2024-03-18T02:53:37.983Z,100404.77
2024-03-18T02:56:05.245Z,100404.06
2024-03-18T02:58:32.394Z,100398.73
2024-03-18T03:00:59.940Z,100397.19
2024-03-18T03:03:27.245Z,100395.15
2024-03-18T03:05:55.000Z,100395.66
2024-03-18T03:08:23.737Z,100399.23
2024-03-18T03:10:50.868Z,100398.04
2024-03-18T03:13:17.990Z,100398.35
2024-03-18T03:15:45.145Z,100398.66
2024-03-18T03:18:12.318Z,100400.40
2024-03-18T03:20:39.514Z,100402.87
2024-03-18T03:23:06.652Z,100401.55
2024-03-18T03:25:33.799Z,100398.81
2024-03-18T03:28:01.061Z,100397.34
2024-03-18T03:30:28.220Z,100391.09
2024-03-18T03:32:55.442Z,100389.94
2024-03-18T03:35:22.964Z,100386.20
2024-03-18T03:37:50.277Z,100385.52
2024-03-18T03:40:17.576Z,100386.71
2024-03-18T03:42:44.762Z,100388.38
2024-03-18T03:45:12.048Z,100390.77
2024-03-18T03:47:39.887Z,100389.90
2024-03-18T03:50:10.280Z,100388.54
2024-03-18T03:52:37.436Z,100389.11
2024-03-18T03:55:04.950Z,100390.86
2024-03-18T03:57:32.169Z,100398.15
2024-03-18T03:59:59.369Z,100396.29
2024-03-18T04:02:26.601Z,100396.51
2024-03-18T04:04:53.876Z,100392.11
2024-03-18T04:07:24.727Z,100391.82
2024-03-18T04:09:51.997Z,100391.54
2024-03-18T04:12:19.442Z,100390.73
2024-03-18T04:14:48.447Z,100392.66
2024-03-18T04:17:16.645Z,100394.21
2024-03-18T04:19:43.814Z,100394.41
2024-03-18T04:22:11.920Z,100395.46
2024-03-18T04:24:39.434Z,100397.23
2024-03-18T04:27:06.581Z,100396.92
2024-03-18T04:29:33.841Z,100395.94
2024-03-18T04:32:01.302Z,100397.34
2024-03-18T04:34:30.748Z,100394.84
2024-03-18T04:36:58.177Z,100392.84
2024-03-18T04:39:25.438Z,100395.77
2024-03-18T04:41:52.758Z,100397.86
2024-03-18T04:44:19.947Z,100395.84
2024-03-18T04:46:47.152Z,100395.17
2024-03-18T04:49:14.274Z,100400.17
2024-03-18T04:51:41.449Z,100398.31
2024-03-18T04:54:08.603Z,100401.09
2024-03-18T04:56:35.843Z,100402.49
2024-03-18T04:59:03.967Z,100403.70
2024-03-18T05:01:31.950Z,100406.98
2024-03-18T05:04:00.604Z,100407.98
2024-03-18T05:06:28.372Z,100408.66
2024-03-18T05:08:55.868Z,100409.61
2024-03-18T05:11:23.095Z,100408.90
2024-03-18T05:13:50.285Z,100409.55
2024-03-18T05:16:20.285Z,100414.34
2024-03-18T05:18:49.142Z,100410.55
2024-03-18T05:21:16.476Z,100406.79
2024-03-18T05:23:43.641Z,100406.63
2024-03-18T05:26:13.048Z,100410.58
2024-03-18T05:28:40.295Z,100407.70
2024-03-18T05:31:07.474Z,100407.93
2024-03-18T05:33:34.631Z,100405.77
2024-03-18T05:36:01.917Z,100407.23
2024-03-18T05:38:29.098Z,100407.13
2024-03-18T05:40:56.309Z,100406.50
2024-03-18T05:43:25.060Z,100405.71
2024-03-18T05:45:52.165Z,100408.66
2024-03-18T05:48:19.922Z,100409.23
2024-03-18T05:50:47.107Z,100407.96
2024-03-18T05:53:15.157Z,100410.79
2024-03-18T05:55:42.329Z,100408.29
2024-03-18T05:58:09.503Z,100407.50
2024-03-18T06:00:38.867Z,100407.23
2024-03-18T06:03:06.730Z,100409.05
2024-03-18T06:05:34.056Z,100407.76
2024-03-18T06:08:01.283Z,100408.49
2024-03-18T06:10:28.504Z,100404.46
2024-03-18T06:12:55.696Z,100404.86
2024-03-18T06:15:22.882Z,100406.98
2024-03-18T06:17:50.875Z,100406.05
2024-03-18T06:20:18.733Z,100409.07
2024-03-18T06:22:48.225Z,100406.39
2024-03-18T06:25:32.164Z,100408.17
2024-03-18T06:27:59.307Z,100412.02
2024-03-18T06:30:26.527Z,100409.02
2024-03-18T06:32:53.785Z,100411.52
2024-03-18T06:35:21.073Z,100410.41
2024-03-18T06:37:48.275Z,100408.05
2024-03-18T06:40:20.232Z,100406.73
2024-03-18T06:42:52.223Z,100407.29
2024-03-18T06:45:21.145Z,100400.00
2024-03-18T06:47:50.218Z,100403.34
2024-03-18T06:50:21.058Z,100401.19
2024-03-18T06:52:48.538Z,100404.70
2024-03-18T06:55:15.765Z,100402.02
2024-03-18T06:57:42.930Z,100404.50
2024-03-18T07:00:10.692Z,100404.89
2024-03-18T07:02:37.941Z,100401.14
2024-03-18T07:05:05.698Z,100400.86
2024-03-18T07:07:33.092Z,100400.92
2024-03-18T07:10:00.289Z,100396.50
2024-03-18T07:12:27.660Z,100398.61
2024-03-18T07:14:54.900Z,100397.13
2024-03-18T07:17:22.342Z,100402.65
2024-03-18T07:20:02.927Z,100401.48
2024-03-18T07:22:39.498Z,100402.66
2024-03-18T07:25:10.894Z,100404.02
2024-03-18T07:27:42.853Z,100403.85
2024-03-18T07:30:14.604Z,100405.75
2024-03-18T07:32:42.499Z,100406.14
2024-03-18T07:35:15.985Z,100406.55
2024-03-18T07:37:43.647Z,100407.84
2024-03-18T07:40:12.537Z,100406.17
2024-03-18T07:42:41.271Z,100408.81
2024-03-18T07:45:09.537Z,100407.98
2024-03-18T07:47:36.956Z,100410.91
2024-03-18T07:50:04.966Z,100413.35
2024-03-18T07:52:32.374Z,100411.30
2024-03-18T07:55:01.404Z,100416.62
2024-03-18T07:57:29.343Z,100413.16
2024-03-18T07:59:56.690Z,100415.02
2024-03-18T08:02:23.859Z,100418.98
2024-03-18T08:04:53.535Z,100422.80
2024-03-18T08:07:20.805Z,100419.77
2024-03-18T08:09:48.049Z,100424.27
2024-03-18T08:12:15.230Z,100423.95
2024-03-18T08:14:44.792Z,100424.63
2024-03-18T08:17:12.398Z,100427.88
2024-03-18T08:19:39.635Z,100424.25
2024-03-18T08:22:13.959Z,100423.41
2024-03-18T08:24:47.384Z,100421.16
2024-03-18T08:27:15.166Z,100423.24
2024-03-18T08:29:42.500Z,100423.81
2024-03-18T08:32:10.445Z,100421.27
2024-03-18T08:34:38.278Z,100417.19
2024-03-18T08:37:05.475Z,100415.89
2024-03-18T08:39:32.811Z,100411.66
2024-03-18T08:42:00.044Z,100409.64
2024-03-18T08:44:27.418Z,100402.70
2024-03-18T08:46:54.754Z,100410.30
2024-03-18T08:49:24.765Z,100409.16
2024-03-18T08:51:51.926Z,100413.55
2024-03-18T08:54:19.102Z,100409.25
2024-03-18T08:56:46.399Z,100407.36
2024-03-18T08:59:14.314Z,100410.65
2024-03-18T09:01:41.609Z,100411.14
2024-03-18T09:04:14.447Z,100414.77
2024-03-18T09:06:49.036Z,100417.19
2024-03-18T09:09:16.333Z,100423.55
2024-03-18T09:11:43.988Z,100425.08
2024-03-18T09:14:11.368Z,100425.23
2024-03-18T09:16:38.594Z,100424.67
2024-03-18T09:19:05.714Z,100425.84
2024-03-18T09:21:32.930Z,100431.30
2024-03-18T09:24:00.329Z,100428.52
2024-03-18T09:26:27.455Z,100431.23
2024-03-18T09:28:54.613Z,100428.08
2024-03-18T09:31:21.839Z,100431.29
2024-03-18T09:33:49.159Z,100425.06
2024-03-18T09:36:16.382Z,100430.19
2024-03-18T09:38:43.571Z,100429.33
2024-03-18T09:41:18.304Z,100428.33
2024-03-18T09:43:48.783Z,100428.52
2024-03-18T09:46:20.147Z,100433.70
2024-03-18T09:48:50.253Z,100434.91
2024-03-18T09:51:21.521Z,100439.76
2024-03-18T09:53:48.776Z,100438.04
2024-03-18T09:56:16.509Z,100436.64
2024-03-18T09:58:44.071Z,100440.60
2024-03-18T10:01:14.204Z,100444.40
2024-03-18T10:03:42.288Z,100439.77
2024-03-18T10:06:09.626Z,100436.47
2024-03-18T10:08:38.077Z,100436.13
2024-03-18T10:11:05.335Z,100440.91
2024-03-18T10:13:38.184Z,100438.14
2024-03-18T10:25:12.817Z,100442.91
2024-03-18T11:01:00.035Z,100448.56
2024-03-18T11:03:50.447Z,100450.79
2024-03-18T11:06:21.427Z,100448.63
2024-03-18T11:08:56.794Z,100448.69
2024-03-18T11:11:25.290Z,100446.15
2024-03-18T11:13:53.733Z,100444.79
2024-03-18T11:16:20.928Z,100443.96
2024-03-18T11:18:49.405Z,100433.91
2024-03-18T11:21:19.575Z,100431.46
2024-03-18T11:24:04.256Z,100435.86
2024-03-18T11:26:31.898Z,100431.58
2024-03-18T11:29:10.045Z,100433.21
2024-03-18T11:31:39.052Z,100424.36
2024-03-18T11:34:08.202Z,100423.01
2024-03-18T11:36:49.200Z,100426.00
2024-03-18T11:39:18.103Z,100426.95
2024-03-18T11:41:45.518Z,100426.67
2024-03-18T11:44:14.648Z,100426.55
2024-03-18T11:46:43.108Z,100425.05
2024-03-18T11:49:21.293Z,100433.55
2024-03-18T11:51:48.846Z,100434.11
2024-03-18T11:54:16.008Z,100434.81
2024-03-18T11:56:43.924Z,100434.13
2024-03-18T11:59:15.848Z,100434.66
2024-03-18T12:01:43.702Z,100440.16
2024-03-18T12:04:10.911Z,100436.19
2024-03-18T12:06:39.439Z,100438.95
2024-03-18T12:09:07.041Z,100437.23
2024-03-18T12:11:34.773Z,100435.51
2024-03-18T12:14:02.129Z,100436.38
2024-03-18T12:16:39.724Z,100443.63
2024-03-18T12:19:12.769Z,100439.96
2024-03-18T12:21:43.247Z,100442.39
2024-03-18T12:24:28.202Z,100445.83
2024-03-18T12:27:11.495Z,100438.77
2024-03-18T12:29:39.020Z,100438.94
2024-03-18T12:32:06.507Z,100436.12
2024-03-18T12:34:33.655Z,100437.44
2024-03-18T12:37:01.005Z,100437.39
2024-03-18T12:39:31.965Z,100431.11
2024-03-18T12:42:03.226Z,100431.79
2024-03-18T12:44:30.530Z,100431.60
2024-03-18T12:46:58.330Z,100429.36
2024-03-18T12:49:25.504Z,100427.28
2024-03-18T12:51:52.703Z,100428.80
2024-03-18T12:54:19.947Z,100429.11
2024-03-18T12:56:47.276Z,100432.86
2024-03-18T12:59:14.794Z,100431.51
2024-03-18T13:01:43.449Z,100424.77
2024-03-18T13:04:12.720Z,100429.01
2024-03-18T13:06:41.283Z,100435.84
2024-03-18T13:09:09.111Z,100437.91
2024-03-18T13:11:36.310Z,100433.80
2024-03-18T13:14:03.500Z,100439.27
2024-03-18T13:16:31.798Z,100441.30
2024-03-18T13:18:59.323Z,100438.50
2024-03-18T13:21:26.689Z,100439.96
2024-03-18T13:23:53.884Z,100435.92
2024-03-18T13:26:21.030Z,100439.62
2024-03-18T13:28:48.382Z,100440.25
2024-03-18T13:31:25.689Z,100438.08
2024-03-18T13:33:53.546Z,100442.33
2024-03-18T13:36:20.697Z,100445.94
2024-03-18T13:38:47.896Z,100450.48
2024-03-18T13:41:16.505Z,100456.88
2024-03-18T13:43:44.559Z,100457.76
2024-03-18T13:46:12.326Z,100458.05
2024-03-18T13:48:39.741Z,100459.36
2024-03-18T13:51:12.743Z,100464.29
2024-03-18T13:53:41.048Z,100463.85
2024-03-18T13:56:08.309Z,100462.67
2024-03-18T13:58:35.651Z,100464.45
2024-03-18T14:01:05.930Z,100464.98
2024-03-18T14:03:34.225Z,100462.92
2024-03-18T14:06:01.372Z,100462.58
2024-03-18T14:08:28.513Z,100463.45
2024-03-18T14:10:56.424Z,100464.83
2024-03-18T14:13:24.581Z,100466.73
2024-03-18T14:15:51.739Z,100470.89
2024-03-18T14:18:18.919Z,100470.36
2024-03-18T14:20:46.148Z,100469.46
2024-03-18T14:23:13.309Z,100466.70
2024-03-18T14:25:40.496Z,100468.58
2024-03-18T14:28:08.067Z,100467.52
2024-03-18T14:30:35.495Z,100469.77
2024-03-18T14:33:02.784Z,100471.85
2024-03-18T14:35:30.199Z,100473.25
2024-03-18T14:37:57.841Z,100471.73
2024-03-18T14:40:27.428Z,100478.48
2024-03-18T14:42:54.818Z,100477.10
2024-03-18T14:45:22.570Z,100482.11
2024-03-18T14:47:50.413Z,100486.39
2024-03-18T14:50:17.720Z,100491.04
2024-03-18T14:52:45.392Z,100487.75
2024-03-18T14:55:20.370Z,100486.53
2024-03-18T14:57:47.598Z,100491.00
2024-03-18T15:00:15.541Z,100492.55
2024-03-18T15:02:43.033Z,100495.14
2024-03-18T15:05:10.678Z,100494.25
2024-03-18T15:07:37.852Z,100495.11
2024-03-18T15:10:10.318Z,100496.45
2024-03-18T15:12:38.631Z,100497.14
2024-03-18T15:15:08.596Z,100495.38
2024-03-18T15:17:51.583Z,100495.21
2024-03-18T15:20:19.760Z,100495.71
2024-03-18T15:22:48.649Z,100498.96
2024-03-18T15:25:35.070Z,100499.30
2024-03-18T15:28:02.929Z,100502.54
2024-03-18T15:30:30.481Z,100502.86
2024-03-18T15:33:01.777Z,100503.88
2024-03-18T15:35:32.118Z,100510.05
2024-03-18T15:37:59.289Z,100515.54
2024-03-18T15:40:26.634Z,100512.58
2024-03-18T15:42:53.815Z,100512.02
2024-03-18T15:45:21.425Z,100517.01
2024-03-18T15:47:48.735Z,100519.55
2024-03-18T15:50:15.963Z,100518.68
2024-03-18T15:52:43.207Z,100523.48
2024-03-18T15:55:10.590Z,100528.29
2024-03-18T15:57:37.775Z,100530.67
2024-03-18T16:00:14.836Z,100528.59
2024-03-18T16:02:42.582Z,100529.80
2024-03-18T16:05:09.778Z,100533.04
2024-03-18T16:07:37.020Z,100536.12
2024-03-18T16:10:10.770Z,100535.25
2024-03-18T16:12:39.523Z,100541.27
2024-03-18T16:15:10.608Z,100543.84
2024-03-18T16:17:38.905Z,100544.88
2024-03-18T16:20:11.400Z,100544.02
2024-03-18T16:22:38.608Z,100550.36
2024-03-18T16:25:05.917Z,100550.17
2024-03-18T16:27:33.104Z,100554.48
2024-03-18T16:30:00.406Z,100558.95
2024-03-18T16:32:27.619Z,100561.34
2024-03-18T16:34:54.786Z,100561.31
2024-03-18T16:37:21.985Z,100563.70
2024-03-18T16:39:49.375Z,100568.48
2024-03-18T16:42:18.679Z,100571.71
2024-03-18T16:44:45.932Z,100575.13
2024-03-18T16:47:13.146Z,100576.30
2024-03-18T16:49:40.597Z,100579.17
2024-03-18T16:52:07.936Z,100587.05
2024-03-18T16:54:35.137Z,100588.73
2024-03-18T16:57:02.425Z,100587.50
2024-03-18T16:59:29.653Z,100588.36
2024-03-18T17:01:56.813Z,100588.69
2024-03-18T17:04:24.638Z,100592.13
2024-03-18T17:06:53.923Z,100595.02
2024-03-18T17:09:24.742Z,100600.00
2024-03-18T17:11:51.925Z,100600.14
2024-03-18T17:14:23.465Z,100602.52
2024-03-18T17:16:50.913Z,100603.17
2024-03-18T17:19:18.239Z,100601.96
2024-03-18T17:21:46.937Z,100601.77
2024-03-18T17:24:16.381Z,100606.21
2024-03-18T17:26:43.881Z,100610.84
2024-03-18T17:29:11.870Z,100610.81
2024-03-18T17:31:40.690Z,100612.15
2024-03-18T17:34:08.021Z,100612.47
2024-03-18T17:37:04.349Z,100613.11
2024-03-18T17:39:22.374Z,100618.73
2024-03-18T17:41:49.566Z,100624.35
2024-03-18T17:44:17.806Z,100623.81
2024-03-18T17:46:45.725Z,100626.05
2024-03-18T17:49:12.933Z,100628.60
2024-03-18T17:51:40.129Z,100628.05
2024-03-18T17:54:07.818Z,100626.97
2024-03-18T17:56:35.117Z,100633.98
2024-03-18T17:59:09.891Z,100635.14
2024-03-18T18:01:37.161Z,100638.17
2024-03-18T18:04:05.338Z,100643.27
2024-03-18T18:06:34.303Z,100646.00
2024-03-18T18:09:06.393Z,100647.34
2024-03-18T18:11:34.168Z,100647.16
2024-03-18T18:14:01.352Z,100652.98
2024-03-18T18:16:28.957Z,100651.42
2024-03-18T18:18:56.104Z,100653.27
2024-03-18T18:21:23.317Z,100656.51
2024-03-18T18:23:54.100Z,100660.42
2024-03-18T18:26:21.828Z,100666.39
2024-03-18T18:28:49.045Z,100665.87
2024-03-18T18:31:17.408Z,100665.66
2024-03-18T18:33:44.679Z,100669.41
2024-03-18T18:36:11.899Z,100669.56
2024-03-18T18:38:44.246Z,100667.66
2024-03-18T18:41:11.993Z,100668.50
2024-03-18T18:43:41.001Z,100672.45
2024-03-18T18:46:08.307Z,100672.45
2024-03-18T18:48:35.575Z,100675.86
2024-03-18T18:51:03.297Z,100674.95
2024-03-18T18:53:32.637Z,100677.30
2024-03-18T18:56:01.702Z,100678.14
2024-03-18T18:58:30.443Z,100679.64
2024-03-18T19:00:58.400Z,100683.38
2024-03-18T19:03:26.452Z,100684.67
2024-03-18T19:05:53.834Z,100682.20
2024-03-18T19:08:22.188Z,100687.62
2024-03-18T19:10:49.760Z,100686.34
2024-03-18T19:13:18.752Z,100691.95
2024-03-18T19:15:47.305Z,100694.16
2024-03-18T19:18:14.743Z,100693.75
2024-03-18T19:20:42.067Z,100699.40
2024-03-18T19:23:09.283Z,100698.48
2024-03-18T19:25:37.503Z,100701.23
2024-03-18T19:28:12.408Z,100703.11
2024-03-18T19:30:43.008Z,100707.58
2024-03-18T19:33:10.246Z,100706.89
2024-03-18T19:35:41.010Z,100711.33
2024-03-18T19:38:08.568Z,100713.19
2024-03-18T19:40:36.029Z,100714.73
2024-03-18T19:43:04.840Z,100712.53
2024-03-18T19:45:32.273Z,100714.43
2024-03-18T19:47:59.430Z,100712.05
2024-03-18T19:50:26.679Z,100714.95
2024-03-18T19:52:54.747Z,100715.81
2024-03-18T19:55:21.996Z,100717.50
2024-03-18T19:57:49.178Z,100713.85
2024-03-18T20:00:18.733Z,100711.27
2024-03-18T20:02:45.991Z,100711.10
2024-03-18T20:05:14.053Z,100710.40
2024-03-18T20:07:41.623Z,100711.39
2024-03-18T20:10:10.550Z,100711.52
2024-03-18T20:12:47.243Z,100712.30
2024-03-18T20:15:16.551Z,100715.16
2024-03-18T20:17:46.559Z,100718.89
2024-03-18T20:20:14.358Z,100721.58
2024-03-18T20:22:43.872Z,100723.44
2024-03-18T20:25:16.003Z,100728.04
2024-03-18T20:27:47.786Z,100726.93
2024-03-18T20:30:20.737Z,100727.89
2024-03-18T20:32:48.615Z,100725.73
2024-03-18T20:35:16.454Z,100727.02
2024-03-18T20:37:48.284Z,100728.48
2024-03-18T20:40:17.222Z,100731.67
2024-03-18T20:42:46.506Z,100731.58
2024-03-18T20:45:16.266Z,100728.08
2024-03-18T20:47:46.769Z,100730.39
2024-03-18T20:50:14.108Z,100732.56
2024-03-18T20:52:41.713Z,100736.27
2024-03-18T20:55:13.061Z,100735.81
2024-03-18T20:57:41.681Z,100736.59
2024-03-18T21:00:15.145Z,100742.53
2024-03-18T21:02:47.080Z,100740.55
2024-03-18T21:05:15.119Z,100740.47
2024-03-18T21:07:45.228Z,100738.35
2024-03-18T21:10:20.229Z,100741.02
2024-03-18T21:12:51.379Z,100741.00
2024-03-18T21:15:19.212Z,100741.69
2024-03-18T21:17:46.573Z,100739.45
2024-03-18T21:20:16.258Z,100739.11
2024-03-18T21:22:47.836Z,100744.62
2024-03-18T21:25:16.838Z,100746.23
2024-03-18T21:27:46.019Z,100746.65
2024-03-18T21:30:13.216Z,100744.97
2024-03-18T21:32:40.907Z,100744.87
2024-03-18T21:35:11.178Z,100746.81
2024-03-18T21:37:38.581Z,100748.38
2024-03-18T21:40:06.529Z,100752.73
2024-03-18T21:42:34.728Z,100758.00
2024-03-18T21:45:03.021Z,100755.33
2024-03-18T21:47:30.233Z,100757.84
2024-03-18T21:49:57.576Z,100756.38
2024-03-18T21:52:24.945Z,100752.28
2024-03-18T21:54:52.740Z,100755.71
2024-03-18T21:57:19.945Z,100752.75
2024-03-18T21:59:48.276Z,100750.45
2024-03-18T22:02:15.932Z,100748.09
2024-03-18T22:04:43.089Z,100748.80
2024-03-18T22:07:10.296Z,100749.39
2024-03-18T22:09:38.830Z,100753.55
2024-03-18T22:12:06.447Z,100757.02
2024-03-18T22:14:38.250Z,100754.33
2024-03-18T22:17:12.093Z,100755.23
2024-03-18T22:19:40.302Z,100758.20
2024-03-18T22:22:08.380Z,100761.55
2024-03-18T22:24:35.538Z,100762.70
2024-03-18T22:27:02.806Z,100766.70
2024-03-18T22:29:30.007Z,100771.77
2024-03-18T22:31:57.246Z,100773.27
2024-03-18T22:34:24.397Z,100774.78
2024-03-18T22:36:51.544Z,100772.86
2024-03-18T22:39:18.747Z,100774.91
2024-03-18T22:41:45.916Z,100778.85
2024-03-18T22:44:13.133Z,100778.80
2024-03-18T22:46:40.331Z,100784.42
2024-03-18T22:49:11.087Z,100781.11
2024-03-18T22:51:38.349Z,100781.92
2024-03-18T22:54:05.518Z,100784.44
2024-03-18T22:56:33.566Z,100784.02
2024-03-18T22:59:00.960Z,100785.82
2024-03-18T23:01:28.189Z,100783.66
2024-03-18T23:03:55.375Z,100788.70
2024-03-18T23:06:22.812Z,100789.28
2024-03-18T23:08:50.022Z,100787.45
2024-03-18T23:11:17.268Z,100785.59
2024-03-18T23:13:44.459Z,100782.39
2024-03-18T23:16:11.753Z,100781.44
2024-03-18T23:18:38.888Z,100782.87
2024-03-18T23:21:06.092Z,100783.77
2024-03-18T23:23:33.463Z,100783.13
2024-03-18T23:26:02.226Z,100785.88
2024-03-18T23:28:29.522Z,100784.69
2024-03-18T23:30:56.806Z,100786.75
2024-03-18T23:33:24.115Z,100787.80
2024-03-18T23:35:51.482Z,100790.41
2024-03-18T23:38:18.749Z,100798.16
2024-03-18T23:40:47.634Z,100798.55
2024-03-18T23:43:15.961Z,100803.35
2024-03-18T23:45:59.460Z,100805.77
2024-03-18T23:48:26.643Z,100804.41
2024-03-18T23:50:53.796Z,100807.33
2024-03-18T23:53:21.059Z,100812.36
2024-03-18T23:55:48.281Z,100814.79
2024-03-18T23:58:15.553Z,100810.16
